Virginie Heriot — FGH2040 — position and weather

sailwx.info

Track history (hours):
 
Tides and Currents Weather Stations Pressure Air Temp Water Temp Dewpoint Dewpoint Depression Visibility Wind Speed Wind Dir Waves Ship Positions

Virginie Heriot

Last reported at 2018-Feb-21 10:15 UTC. Time now 2018-Feb-22 09:20 UTC.
Position N 48°17' W 004°25'.

Length 14 m.

Type: Sailing vessel. MMSI: 227071310.

Date/timePositionNaut miles runAvg speedWind from/ knotsBaromVisibWave heightAir tempDewpointWater temp
2018-Feb-21 10:15N 48°17' W 004°25'0 0.0
2018-Feb-21 10:00N 48°17' W 004°25'2 3.2
2018-Feb-21 09:30N 48°18' W 004°26'2 5.0
2018-Feb-21 09:00N 48°20' W 004°29'4 7.9
2018-Feb-21 08:30N 48°17' W 004°25'0 0.0
2018-Feb-20 16:47N 48°17' W 004°25'0 0.0
2018-Feb-19 15:35N 48°17' W 004°25'0 0.0
2018-Feb-19 15:29N 48°17' W 004°25'1 3.0
2018-Feb-19 15:00N 48°18' W 004°25'2 4.8
2018-Feb-19 14:30N 48°19' W 004°28'3 5.7
2018-Feb-19 14:00N 48°19' W 004°24'2 3.6
2018-Feb-19 13:28N 48°17' W 004°25'0 0.0
2018-Feb-19 12:58N 48°17' W 004°25'0 0.0
2018-Feb-18 15:45N 48°17' W 004°25'0 0.0
2018-Feb-18 15:30N 48°17' W 004°25'0 0.6
2018-Feb-18 15:00N 48°17' W 004°25'3 5.6
2018-Feb-18 14:30N 48°19' W 004°28'3 6.3
2018-Feb-18 14:00N 48°21' W 004°32'4 7.9
2018-Feb-18 13:30N 48°20' W 004°37'3 5.6
2018-Feb-18 13:01N 48°21' W 004°41'0 0.3
2018-Feb-18 12:25N 48°21' W 004°42'0 0.0
2018-Feb-18 12:01N 48°21' W 004°42'0 0.0
2018-Feb-18 11:31N 48°21' W 004°42'0 0.3
2018-Feb-18 11:01N 48°21' W 004°42'2 3.0
2018-Feb-18 10:30N 48°19' W 004°43'3 5.7
2018-Feb-18 09:59N 48°19' W 004°47'6 8.9
2018-Feb-18 09:20N 48°24' W 004°51'3 7.9
2018-Feb-18 09:00N 48°26' W 004°54'3 0.2
2018-Feb-17 15:43N 48°24' W 004°57'0 0.0
2018-Feb-17 15:01N 48°24' W 004°57'0 0.0
2018-Feb-17 14:58N 48°24' W 004°57'1 2.2
2018-Feb-17 14:30N 48°25' W 004°57'2 3.0
2018-Feb-17 13:59N 48°24' W 004°55'1 1.8
2018-Feb-17 13:30N 48°24' W 004°54'1 2.3
2018-Feb-17 12:58N 48°24' W 004°52'2 3.6
2018-Feb-17 12:29N 48°24' W 004°49'3 5.7
2018-Feb-17 12:00N 48°22' W 004°49'3 5.2
2018-Feb-17 11:30N 48°19' W 004°48'4 7.2
2018-Feb-17 10:59N 48°15' W 004°48'3 5.5
2018-Feb-17 10:30N 48°16' W 004°45'3 6.8
2018-Feb-17 10:00N 48°18' W 004°40'  
2018-Feb-12 15:17N 48°17' W 004°25'0 1.2
2018-Feb-12 15:01N 48°17' W 004°25'1 2.3
2018-Feb-12 14:30N 48°18' W 004°23'2 3.8
2018-Feb-12 14:00N 48°19' W 004°25'  
Track history (hours):
 
Tides and Currents Weather Stations Pressure Air Temp Water Temp Dewpoint Dewpoint Depression Visibility Wind Speed Wind Dir Waves Ship Positions

Virginie Heriot

Last reported at 2018-Feb-21 10:15 UTC. Time now 2018-Feb-22 09:20 UTC.
Position N 48°17' W 004°25'.

Length 14 m.

Type: Sailing vessel. MMSI: 227071310.

Date/timePositionNaut miles runAvg speedWind from/ knotsBaromVisibWave heightAir tempDewpointWater temp
2018-Feb-21 10:15N 48°17' W 004°25'0 0.0
2018-Feb-21 10:00N 48°17' W 004°25'2 3.2
2018-Feb-21 09:30N 48°18' W 004°26'2 5.0
2018-Feb-21 09:00N 48°20' W 004°29'4 7.9
2018-Feb-21 08:30N 48°17' W 004°25'0 0.0
2018-Feb-20 16:47N 48°17' W 004°25'0 0.0
2018-Feb-19 15:35N 48°17' W 004°25'0 0.0
2018-Feb-19 15:29N 48°17' W 004°25'1 3.0
2018-Feb-19 15:00N 48°18' W 004°25'2 4.8
2018-Feb-19 14:30N 48°19' W 004°28'3 5.7
2018-Feb-19 14:00N 48°19' W 004°24'2 3.6
2018-Feb-19 13:28N 48°17' W 004°25'0 0.0
2018-Feb-19 12:58N 48°17' W 004°25'0 0.0
2018-Feb-18 15:45N 48°17' W 004°25'0 0.0
2018-Feb-18 15:30N 48°17' W 004°25'0 0.6
2018-Feb-18 15:00N 48°17' W 004°25'3 5.6
2018-Feb-18 14:30N 48°19' W 004°28'3 6.3
2018-Feb-18 14:00N 48°21' W 004°32'4 7.9
2018-Feb-18 13:30N 48°20' W 004°37'3 5.6
2018-Feb-18 13:01N 48°21' W 004°41'0 0.3
2018-Feb-18 12:25N 48°21' W 004°42'0 0.0
2018-Feb-18 12:01N 48°21' W 004°42'0 0.0
2018-Feb-18 11:31N 48°21' W 004°42'0 0.3
2018-Feb-18 11:01N 48°21' W 004°42'2 3.0
2018-Feb-18 10:30N 48°19' W 004°43'3 5.7
2018-Feb-18 09:59N 48°19' W 004°47'6 8.9
2018-Feb-18 09:20N 48°24' W 004°51'3 7.9
2018-Feb-18 09:00N 48°26' W 004°54'3 0.2
2018-Feb-17 15:43N 48°24' W 004°57'0 0.0
2018-Feb-17 15:01N 48°24' W 004°57'0 0.0
2018-Feb-17 14:58N 48°24' W 004°57'1 2.2
2018-Feb-17 14:30N 48°25' W 004°57'2 3.0
2018-Feb-17 13:59N 48°24' W 004°55'1 1.8
2018-Feb-17 13:30N 48°24' W 004°54'1 2.3
2018-Feb-17 12:58N 48°24' W 004°52'2 3.6
2018-Feb-17 12:29N 48°24' W 004°49'3 5.7
2018-Feb-17 12:00N 48°22' W 004°49'3 5.2
2018-Feb-17 11:30N 48°19' W 004°48'4 7.2
2018-Feb-17 10:59N 48°15' W 004°48'3 5.5
2018-Feb-17 10:30N 48°16' W 004°45'3 6.8
2018-Feb-17 10:00N 48°18' W 004°40'  
2018-Feb-12 15:17N 48°17' W 004°25'0 1.2
2018-Feb-12 15:01N 48°17' W 004°25'1 2.3
2018-Feb-12 14:30N 48°18' W 004°23'2 3.8
2018-Feb-12 14:00N 48°19' W 004°25'  

Dump ship's entire track history